Time;durP1;ratioP1;P1;durP2;ratioP2;P2;SDS_P1;SDS_P2;PMS_P1;PMS_P2;Temp;Humidity;BMP_temperature;BMP_pressure;BME280_temperature;BME280_humidity;BME280_pressure;Samples;Min_cycle;Max_cycle;Signal;HPM_P1;HPM_P2
2022/11/04 00:00:21;;;;;;;11.57;5.97;;;11.80;99.90;;;;;;5020230;28;20230;-74
2022/11/04 00:02:52;;;;;;;10.40;5.93;;;11.70;99.90;;;;;;5003484;28;20246;-74
2022/11/04 00:05:19;;;;;;;10.30;5.80;;;11.70;99.90;;;;;;5006362;28;20316;-74
2022/11/04 00:13:17;;;;;;;15.73;8.40;;;11.70;99.90;;;;;;5020581;28;20214;-72
2022/11/04 00:18:29;;;;;;;16.80;9.60;;;11.60;99.90;;;;;;5021544;28;20205;-73
2022/11/04 00:29:15;;;;;;;15.80;10.67;;;11.60;99.90;;;;;;5013902;28;20229;-73
2022/11/04 00:34:30;;;;;;;17.73;10.90;;;11.50;99.90;;;;;;5012808;28;20684;-72
2022/11/04 00:36:59;;;;;;;20.10;10.90;;;11.50;99.90;;;;;;5018156;28;20317;-74
2022/11/04 00:39:28;;;;;;;18.27;10.93;;;11.50;99.90;;;;;;5021019;28;20206;-73
2022/11/04 00:41:59;;;;;;;18.07;11.30;;;11.50;99.90;;;;;;5014597;28;20204;-73
2022/11/04 00:44:26;;;;;;;18.80;11.13;;;11.40;99.90;;;;;;5018163;28;20218;-75
2022/11/04 00:46:54;;;;;;;17.83;11.43;;;11.50;99.90;;;;;;5018185;28;20670;-74
2022/11/04 00:49:21;;;;;;;17.87;10.73;;;11.40;99.90;;;;;;5017099;28;20619;-74
2022/11/04 00:51:50;;;;;;;17.83;11.07;;;11.40;99.90;;;;;;5020712;28;20321;-74
2022/11/04 00:54:17;;;;;;;20.17;12.20;;;11.40;99.90;;;;;;5015287;28;20210;-74
2022/11/04 00:56:44;;;;;;;17.80;11.37;;;11.30;99.90;;;;;;5018292;28;20674;-75
2022/11/04 00:59:10;;;;;;;22.73;13.00;;;11.40;99.90;;;;;;5013155;28;20701;-75
2022/11/04 01:01:41;;;;;;;17.60;10.83;;;11.40;99.90;;;;;;5022676;28;20279;-74
2022/11/04 01:04:08;;;;;;;20.97;12.13;;;11.40;99.90;;;;;;5017579;28;20673;-76
2022/11/04 01:06:35;;;;;;;20.23;12.03;;;11.40;99.90;;;;;;5022675;28;20240;-74
2022/11/04 01:09:05;;;;;;;20.10;12.03;;;11.40;99.90;;;;;;5018951;28;20297;-75
2022/11/04 01:11:31;;;;;;;22.23;12.07;;;11.50;99.90;;;;;;5021530;28;20301;-74
2022/11/04 01:13:58;;;;;;;21.57;12.07;;;11.50;99.90;;;;;;5019280;28;20206;-74
2022/11/04 01:16:27;;;;;;;22.67;11.50;;;11.50;99.90;;;;;;5022726;28;20241;-74
2022/11/04 01:18:58;;;;;;;17.87;11.13;;;11.50;99.90;;;;;;5021255;28;20206;-75
2022/11/04 01:21:25;;;;;;;18.10;10.93;;;11.50;99.90;;;;;;5020065;28;20245;-74
2022/11/04 01:23:53;;;;;;;17.33;10.17;;;11.50;99.90;;;;;;5001795;28;20293;-74
2022/11/04 01:26:23;;;;;;;16.93;10.33;;;11.50;99.90;;;;;;5018260;28;20234;-75
2022/11/04 01:28:51;;;;;;;19.37;9.40;;;11.60;99.90;;;;;;5018537;28;20280;-74
2022/11/04 01:31:20;;;;;;;16.40;9.07;;;11.50;99.90;;;;;;5004447;28;20216;-74
2022/11/04 01:33:49;;;;;;;14.03;8.30;;;11.50;99.90;;;;;;5016065;28;20195;-74
2022/11/04 01:36:17;;;;;;;15.47;9.27;;;11.50;99.90;;;;;;5021222;28;20244;-73
2022/11/04 01:38:44;;;;;;;14.63;8.50;;;11.50;99.90;;;;;;5020209;28;20209;-74
2022/11/04 01:41:24;;;;;;;9.97;7.67;;;11.50;99.90;;;;;;5020144;28;20720;-72
2022/11/04 01:43:56;;;;;;;11.30;7.37;;;11.40;99.90;;;;;;5013869;28;20206;-74
2022/11/04 01:46:23;;;;;;;9.53;6.50;;;11.40;99.90;;;;;;5021241;28;20229;-73
2022/11/04 01:48:52;;;;;;;10.03;5.93;;;11.40;99.90;;;;;;5017445;28;20284;-74
2022/11/04 01:51:22;;;;;;;6.13;4.50;;;11.30;99.90;;;;;;5019612;28;20764;-74
2022/11/04 01:53:51;;;;;;;7.17;4.43;;;11.30;99.90;;;;;;5017068;28;20253;-74
2022/11/04 01:56:19;;;;;;;5.03;3.73;;;11.20;99.90;;;;;;5018042;28;20213;-74
2022/11/04 01:58:50;;;;;;;5.63;3.80;;;11.10;99.90;;;;;;5017002;28;20241;-72
2022/11/04 02:01:18;;;;;;;6.23;3.80;;;11.10;99.90;;;;;;5020890;28;20674;-74
2022/11/04 02:04:24;;;;;;;5.40;3.90;;;11.10;99.90;;;;;;5019490;28;20195;-73
2022/11/04 02:06:49;;;;;;;6.00;3.90;;;11.10;99.90;;;;;;5016059;28;20257;-73
2022/11/04 02:09:19;;;;;;;8.57;3.67;;;11.00;99.90;;;;;;5019230;28;20252;-72
2022/11/04 02:14:34;;;;;;;4.47;2.57;;;10.90;99.90;;;;;;5016728;28;20229;-73
2022/11/04 02:17:18;;;;;;;4.83;3.07;;;10.90;99.90;;;;;;5018553;28;20704;-73
2022/11/04 02:19:57;;;;;;;6.00;3.50;;;10.90;99.90;;;;;;5014901;28;20296;-75
2022/11/04 02:22:51;;;;;;;3.53;2.67;;;10.90;99.90;;;;;;5013708;28;20225;-74
2022/11/04 02:25:42;;;;;;;4.97;3.27;;;10.80;99.90;;;;;;5004421;28;20246;-74
2022/11/04 02:28:21;;;;;;;6.20;3.27;;;10.80;99.90;;;;;;5019101;28;20217;-73
2022/11/04 02:31:07;;;;;;;5.57;3.30;;;10.70;99.90;;;;;;5019673;28;20198;-74
2022/11/04 02:33:59;;;;;;;7.30;3.50;;;10.70;99.90;;;;;;5015441;28;20288;-73
2022/11/04 02:36:51;;;;;;;4.60;2.80;;;10.70;99.90;;;;;;4998184;28;20226;-75
2022/11/04 02:39:21;;;;;;;5.70;3.97;;;10.60;99.90;;;;;;5014269;28;20246;-73
2022/11/04 02:42:00;;;;;;;5.43;3.70;;;10.60;99.90;;;;;;5018533;28;20300;-74
2022/11/04 02:44:50;;;;;;;7.10;4.17;;;10.60;99.90;;;;;;5017840;28;20210;-74
2022/11/04 02:47:24;;;;;;;6.67;4.33;;;10.60;99.90;;;;;;5015211;28;20293;-72
2022/11/04 02:50:15;;;;;;;6.23;4.60;;;10.50;99.90;;;;;;5015300;28;20817;-75
2022/11/04 02:52:52;;;;;;;8.27;5.00;;;10.50;99.90;;;;;;4986108;28;20343;-73
2022/11/04 02:55:24;;;;;;;9.27;5.90;;;10.50;99.90;;;;;;5014986;28;20271;-74
2022/11/04 02:57:55;;;;;;;8.00;6.03;;;10.60;99.90;;;;;;5018443;28;20311;-74
2022/11/04 03:00:21;;;;;;;8.93;6.17;;;10.50;99.90;;;;;;5019350;28;20578;-74
2022/11/04 03:03:04;;;;;;;9.07;5.63;;;10.60;99.90;;;;;;5017835;28;20193;-74
2022/11/04 03:05:35;;;;;;;9.13;5.47;;;10.60;99.90;;;;;;5014433;28;20713;-75
2022/11/04 03:08:07;;;;;;;9.33;6.30;;;10.50;99.90;;;;;;5014322;28;20208;-74
2022/11/04 03:10:42;;;;;;;10.43;6.70;;;10.50;99.90;;;;;;5008797;28;20213;-74
2022/11/04 03:13:35;;;;;;;10.47;6.23;;;10.40;99.90;;;;;;5014399;28;20206;-74
2022/11/04 03:16:10;;;;;;;11.93;6.63;;;10.40;99.90;;;;;;5013787;28;20287;-74
2022/11/04 03:18:54;;;;;;;12.23;6.70;;;10.30;99.90;;;;;;5006733;28;20240;-73
2022/11/04 03:21:24;;;;;;;10.90;7.10;;;10.40;99.90;;;;;;5011620;28;20411;-74
2022/11/04 03:23:51;;;;;;;12.73;6.80;;;10.30;99.90;;;;;;5021994;28;20677;-72
2022/11/04 03:26:50;;;;;;;10.17;6.10;;;10.30;99.90;;;;;;5002034;28;20239;-74
2022/11/04 03:29:43;;;;;;;11.23;7.30;;;10.30;99.90;;;;;;5004711;28;20304;-73
2022/11/04 03:32:29;;;;;;;10.37;6.73;;;10.30;99.90;;;;;;5018497;28;20206;-73
2022/11/04 03:34:56;;;;;;;11.03;6.50;;;10.20;99.90;;;;;;5017327;28;20238;-73
2022/11/04 03:37:23;;;;;;;9.40;6.40;;;10.20;99.90;;;;;;5021570;28;20218;-73
2022/11/04 03:39:50;;;;;;;9.67;5.83;;;10.20;99.90;;;;;;5009721;28;20225;-73
2022/11/04 03:42:21;;;;;;;10.60;6.27;;;10.10;99.90;;;;;;5005059;28;20209;-73
2022/11/04 03:44:52;;;;;;;12.53;7.33;;;10.10;99.90;;;;;;5003384;28;20588;-72
2022/11/04 03:47:29;;;;;;;11.17;6.13;;;10.00;99.90;;;;;;5022656;28;20208;-74
2022/11/04 03:50:34;;;;;;;9.70;6.27;;;10.10;99.90;;;;;;5016071;28;20198;-73
2022/11/04 03:53:01;;;;;;;11.20;6.73;;;10.00;99.90;;;;;;4970051;28;20305;-73
2022/11/04 03:55:55;;;;;;;11.50;6.67;;;10.00;99.90;;;;;;5014303;28;20289;-73
2022/11/04 03:58:47;;;;;;;10.77;6.60;;;10.00;99.90;;;;;;5014816;28;20263;-72
2022/11/04 04:01:14;;;;;;;9.90;6.20;;;10.00;99.90;;;;;;5018014;28;20201;-74
2022/11/04 04:03:50;;;;;;;11.80;7.03;;;9.90;99.90;;;;;;5021772;28;20619;-73
2022/11/04 04:06:24;;;;;;;9.33;5.83;;;9.90;99.90;;;;;;5016210;28;20246;-74
2022/11/04 04:09:10;;;;;;;13.27;6.37;;;10.00;99.90;;;;;;5015881;28;20202;-74
2022/11/04 04:11:52;;;;;;;9.50;6.13;;;10.00;99.90;;;;;;5023436;28;20213;-73
2022/11/04 04:14:38;;;;;;;9.50;6.00;;;10.00;99.90;;;;;;5023609;28;20214;-73
2022/11/04 04:17:13;;;;;;;8.70;6.10;;;10.00;99.90;;;;;;5017132;28;20244;-73
2022/11/04 04:19:44;;;;;;;8.97;5.70;;;10.00;99.90;;;;;;5015097;28;20221;-73
2022/11/04 04:22:22;;;;;;;9.20;5.90;;;10.00;99.90;;;;;;5017723;28;20284;-73
2022/11/04 04:27:42;;;;;;;11.13;6.57;;;10.00;99.90;;;;;;5014697;28;20664;-73
2022/11/04 04:30:15;;;;;;;13.07;6.97;;;9.90;99.90;;;;;;5021503;28;20209;-73
2022/11/04 04:32:51;;;;;;;15.97;8.20;;;9.90;99.90;;;;;;5022365;28;20202;-73
2022/11/04 04:35:43;;;;;;;18.80;8.97;;;9.90;99.90;;;;;;5014246;28;20318;-74
2022/11/04 04:47:18;;;;;;;29.17;12.80;;;9.70;99.90;;;;;;5016684;28;20277;-73
2022/11/04 04:49:53;;;;;;;28.33;14.87;;;9.60;99.90;;;;;;5019401;28;20203;-75
2022/11/04 04:52:22;;;;;;;31.03;16.40;;;9.60;99.90;;;;;;5021850;28;20224;-74
2022/11/04 04:54:49;;;;;;;34.27;17.43;;;9.50;99.90;;;;;;5018931;28;20284;-74
2022/11/04 04:57:16;;;;;;;40.30;18.70;;;9.50;99.90;;;;;;5016830;28;20291;-73
2022/11/04 04:59:43;;;;;;;37.77;18.63;;;9.50;99.90;;;;;;5020722;28;20516;-72
2022/11/04 05:02:10;;;;;;;45.90;19.77;;;9.50;99.90;;;;;;5020378;28;20286;-74
2022/11/04 05:04:37;;;;;;;42.80;19.93;;;9.40;99.90;;;;;;5019663;28;20767;-73
2022/11/04 05:07:05;;;;;;;48.57;21.87;;;9.40;99.90;;;;;;5012226;28;20225;-73
2022/11/04 05:09:32;;;;;;;47.93;21.77;;;9.40;99.90;;;;;;5021176;28;20198;-73
2022/11/04 05:11:59;;;;;;;46.67;20.67;;;9.40;99.90;;;;;;5016249;28;20762;-73
2022/11/04 05:14:26;;;;;;;51.70;22.80;;;9.40;99.90;;;;;;5020786;28;20206;-72
2022/11/04 05:16:53;;;;;;;65.30;24.70;;;9.40;99.90;;;;;;5018402;28;20284;-73
2022/11/04 05:19:22;;;;;;;57.43;23.03;;;9.30;99.90;;;;;;5013552;28;20269;-73
2022/11/04 05:21:48;;;;;;;57.20;24.90;;;9.30;99.90;;;;;;5019670;28;20307;-73
2022/11/04 05:24:15;;;;;;;59.70;25.10;;;9.30;99.90;;;;;;5003853;28;20203;-73
2022/11/04 05:26:42;;;;;;;58.87;25.43;;;9.30;99.90;;;;;;5019789;28;20231;-71
2022/11/04 05:29:09;;;;;;;64.63;26.97;;;9.40;99.90;;;;;;5021616;28;20303;-73
2022/11/04 05:31:36;;;;;;;63.73;27.43;;;9.40;99.90;;;;;;5020233;28;20254;-74
2022/11/04 05:34:04;;;;;;;66.33;25.47;;;9.40;99.90;;;;;;5017221;28;20787;-72
2022/11/04 05:36:34;;;;;;;68.20;28.33;;;9.40;99.90;;;;;;5018995;28;20220;-72
2022/11/04 05:39:00;;;;;;;69.63;29.13;;;9.40;99.90;;;;;;5016688;28;20251;-75
2022/11/04 05:41:27;;;;;;;71.17;29.30;;;9.30;99.90;;;;;;5001931;28;20210;-72
2022/11/04 05:44:01;;;;;;;87.63;32.77;;;9.40;99.90;;;;;;5017933;28;20200;-73
2022/11/04 05:46:29;;;;;;;87.10;31.43;;;9.40;99.90;;;;;;5019987;28;20265;-74
2022/11/04 05:48:56;;;;;;;77.40;30.57;;;9.40;99.90;;;;;;5009327;28;20291;-73
2022/11/04 05:51:26;;;;;;;78.90;30.73;;;9.40;99.90;;;;;;5005625;28;20350;-73
2022/11/04 05:53:53;;;;;;;73.70;30.73;;;9.40;99.90;;;;;;5013159;28;20248;-73
2022/11/04 05:56:20;;;;;;;68.03;30.43;;;9.40;99.90;;;;;;5019754;28;20264;-72
2022/11/04 05:58:47;;;;;;;83.83;32.50;;;9.30;99.90;;;;;;5000045;28;20243;-74
2022/11/04 06:01:23;;;;;;;76.53;30.13;;;9.40;99.90;;;;;;5017233;28;20218;-73
2022/11/04 06:03:51;;;;;;;78.73;31.30;;;9.40;99.90;;;;;;5014328;28;20209;-73
2022/11/04 06:06:18;;;;;;;72.23;30.97;;;9.40;99.90;;;;;;5017524;28;20310;-73
2022/11/04 06:08:45;;;;;;;85.43;31.93;;;9.40;99.90;;;;;;5018419;28;20290;-72
2022/11/04 06:11:12;;;;;;;77.70;33.47;;;9.40;99.90;;;;;;4999950;28;20515;-72
2022/11/04 06:13:42;;;;;;;88.10;33.40;;;9.30;99.90;;;;;;5018947;28;20291;-75
2022/11/04 06:16:17;;;;;;;83.60;33.83;;;9.30;99.90;;;;;;4999446;28;20201;-73
2022/11/04 06:18:44;;;;;;;81.73;34.87;;;9.30;99.90;;;;;;5002061;28;20210;-74
2022/11/04 06:21:15;;;;;;;80.97;34.43;;;9.30;99.90;;;;;;4999649;28;20232;-75
2022/11/04 06:23:42;;;;;;;72.33;31.70;;;9.30;99.90;;;;;;5018014;28;20203;-74
2022/11/04 06:26:11;;;;;;;80.53;31.40;;;9.30;99.90;;;;;;4998584;28;20703;-72
2022/11/04 06:28:38;;;;;;;69.80;30.60;;;9.30;99.90;;;;;;5009320;28;20204;-72
2022/11/04 06:31:08;;;;;;;67.47;29.53;;;9.30;99.90;;;;;;5012737;28;20229;-72
2022/11/04 06:33:35;;;;;;;71.67;30.23;;;9.30;99.90;;;;;;5013321;28;20200;-73
2022/11/04 06:36:05;;;;;;;79.00;29.97;;;9.20;99.90;;;;;;5014180;28;20235;-72
2022/11/04 06:38:35;;;;;;;71.50;29.57;;;9.20;99.90;;;;;;5020120;28;20214;-74
2022/11/04 06:41:03;;;;;;;63.47;26.80;;;9.20;99.90;;;;;;5011299;28;20285;-72
2022/11/04 06:43:31;;;;;;;60.87;26.50;;;9.10;99.90;;;;;;5015391;28;20213;-72
2022/11/04 06:46:00;;;;;;;57.00;24.33;;;9.10;99.90;;;;;;5015349;28;20313;-73
2022/11/04 06:48:29;;;;;;;52.57;24.73;;;9.00;99.90;;;;;;5012618;28;20290;-72
2022/11/04 06:50:57;;;;;;;56.87;23.93;;;9.00;99.90;;;;;;5010460;28;20691;-73
2022/11/04 06:53:25;;;;;;;48.37;22.57;;;9.00;99.90;;;;;;5016723;28;20314;-72
2022/11/04 06:55:52;;;;;;;47.13;22.40;;;9.10;99.90;;;;;;5017632;28;20287;-73
2022/11/04 06:58:19;;;;;;;53.37;22.80;;;9.10;99.90;;;;;;5005279;28;20302;-72
2022/11/04 07:00:51;;;;;;;54.13;23.73;;;9.00;99.90;;;;;;5011909;28;20191;-72
2022/11/04 07:03:18;;;;;;;47.53;22.83;;;9.10;99.90;;;;;;5010152;28;20219;-72
2022/11/04 07:05:45;;;;;;;51.97;24.60;;;9.10;99.90;;;;;;5000677;28;20758;-72
2022/11/04 07:08:12;;;;;;;57.23;24.87;;;9.00;99.90;;;;;;4999452;28;20557;-72
2022/11/04 07:10:38;;;;;;;53.03;24.70;;;9.00;99.90;;;;;;5019483;28;20206;-72
2022/11/04 07:13:05;;;;;;;59.33;24.57;;;9.20;99.90;;;;;;5016878;28;20199;-72
2022/11/04 07:15:32;;;;;;;61.50;24.53;;;9.10;99.90;;;;;;5017431;28;20202;-71
2022/11/04 07:17:59;;;;;;;58.07;25.63;;;9.30;99.90;;;;;;5018011;28;20290;-72
2022/11/04 07:20:26;;;;;;;58.53;24.87;;;9.40;99.90;;;;;;5018118;28;20204;-72
2022/11/04 07:22:53;;;;;;;49.67;22.73;;;9.40;99.90;;;;;;5016065;28;20251;-73
2022/11/04 07:25:20;;;;;;;49.23;23.10;;;9.50;99.90;;;;;;4982769;28;20210;-73
2022/11/04 07:27:47;;;;;;;47.40;21.00;;;9.60;99.90;;;;;;4999663;28;20227;-72
2022/11/04 07:30:14;;;;;;;45.50;20.97;;;9.60;99.90;;;;;;5014882;28;20204;-71
2022/11/04 07:32:41;;;;;;;39.30;18.73;;;9.60;99.90;;;;;;5016475;28;20207;-72
2022/11/04 07:35:08;;;;;;;39.43;20.23;;;9.70;99.90;;;;;;5019615;28;20608;-72
2022/11/04 07:37:35;;;;;;;41.80;20.40;;;9.80;99.90;;;;;;5014795;28;20222;-74
2022/11/04 07:40:03;;;;;;;40.20;18.40;;;9.80;99.90;;;;;;4998789;28;20661;-72
2022/11/04 07:42:30;;;;;;;36.30;17.30;;;9.90;99.90;;;;;;4998864;28;20290;-73
2022/11/04 07:44:57;;;;;;;35.90;17.13;;;9.90;99.90;;;;;;5016247;28;20521;-71
2022/11/04 07:47:24;;;;;;;40.17;16.63;;;10.00;99.90;;;;;;5012811;28;20675;-73
2022/11/04 07:49:51;;;;;;;37.07;17.17;;;10.00;99.90;;;;;;5016361;28;20264;-72
2022/11/04 07:52:18;;;;;;;38.73;16.30;;;10.10;99.90;;;;;;5008298;28;20612;-70
2022/11/04 07:54:44;;;;;;;33.13;15.07;;;10.10;99.90;;;;;;4994893;28;20638;-73
2022/11/04 07:57:13;;;;;;;31.30;14.50;;;10.20;99.90;;;;;;5011146;28;20248;-73
2022/11/04 07:59:40;;;;;;;27.30;14.63;;;10.10;99.90;;;;;;5017953;28;20221;-73
2022/11/04 08:02:09;;;;;;;30.87;14.90;;;10.30;99.90;;;;;;5013997;28;20552;-73
2022/11/04 08:04:36;;;;;;;27.57;13.13;;;10.40;99.90;;;;;;5012817;28;20271;-72
2022/11/04 08:07:06;;;;;;;22.13;12.23;;;10.40;99.90;;;;;;5008656;28;20708;-73
2022/11/04 08:09:36;;;;;;;24.50;12.07;;;10.60;99.90;;;;;;5019188;28;20248;-72
2022/11/04 08:12:07;;;;;;;21.70;12.50;;;10.50;99.90;;;;;;5005001;28;20217;-73
2022/11/04 08:14:35;;;;;;;21.17;11.87;;;10.60;99.90;;;;;;5020193;28;20229;-73
2022/11/04 08:17:04;;;;;;;21.20;11.13;;;10.70;99.90;;;;;;5021691;28;20210;-71
2022/11/04 08:19:31;;;;;;;20.97;10.97;;;10.80;99.90;;;;;;5021604;28;20287;-73
2022/11/04 08:21:58;;;;;;;25.00;11.97;;;10.80;99.90;;;;;;5002537;28;20228;-72
2022/11/04 08:24:25;;;;;;;25.47;12.30;;;10.90;99.90;;;;;;5018314;28;20288;-71
2022/11/04 08:26:52;;;;;;;28.30;13.07;;;10.90;99.90;;;;;;5017655;28;20244;-72
2022/11/04 08:29:19;;;;;;;21.87;11.67;;;11.00;99.90;;;;;;5020127;28;20242;-73
2022/11/04 08:31:46;;;;;;;24.40;11.80;;;11.10;99.90;;;;;;5021995;28;20210;-72
2022/11/04 08:34:15;;;;;;;25.93;12.37;;;11.10;99.90;;;;;;5021015;28;20305;-72
2022/11/04 08:36:43;;;;;;;23.20;13.23;;;11.20;99.90;;;;;;5019261;28;20734;-72
2022/11/04 08:39:10;;;;;;;21.70;12.00;;;11.20;99.90;;;;;;5022463;28;20214;-72
2022/11/04 08:41:40;;;;;;;23.73;13.00;;;11.30;99.90;;;;;;5023032;28;20214;-71
2022/11/04 08:44:07;;;;;;;21.33;11.60;;;11.40;99.90;;;;;;5012104;28;20305;-72
2022/11/04 08:46:37;;;;;;;19.80;11.53;;;11.40;99.90;;;;;;5004202;28;20233;-72
2022/11/04 08:49:04;;;;;;;23.23;11.30;;;11.40;99.90;;;;;;5020267;28;20217;-72
2022/11/04 08:51:40;;;;;;;19.60;11.67;;;11.50;99.90;;;;;;5021361;28;20226;-72
2022/11/04 08:54:07;;;;;;;18.10;11.37;;;11.50;99.90;;;;;;5015278;28;20218;-72
2022/11/04 08:56:37;;;;;;;23.50;11.70;;;11.40;99.90;;;;;;5018359;28;20297;-73
2022/11/04 08:59:05;;;;;;;26.23;11.93;;;11.30;99.90;;;;;;5018229;28;20245;-72
2022/11/04 09:01:34;;;;;;;24.57;11.70;;;11.30;99.90;;;;;;5019948;28;20206;-72
2022/11/04 09:04:02;;;;;;;24.07;11.37;;;11.30;99.90;;;;;;5016987;28;20203;-73
2022/11/04 09:06:34;;;;;;;22.97;11.93;;;11.30;99.90;;;;;;5021435;28;20236;-72
2022/11/04 09:09:03;;;;;;;22.07;11.87;;;11.30;99.90;;;;;;5017896;28;20283;-73
2022/11/04 09:11:32;;;;;;;19.70;12.13;;;11.30;99.90;;;;;;5020720;28;20206;-72
2022/11/04 09:14:00;;;;;;;19.77;12.10;;;11.30;99.90;;;;;;5019263;28;20206;-72
2022/11/04 09:16:29;;;;;;;27.30;11.87;;;11.30;99.90;;;;;;5001686;28;20209;-72
2022/11/04 09:18:57;;;;;;;25.33;13.70;;;11.40;99.90;;;;;;5018063;28;20241;-72
2022/11/04 09:21:25;;;;;;;23.50;13.50;;;11.40;99.90;;;;;;5020145;28;20222;-74
2022/11/04 09:23:53;;;;;;;25.27;13.33;;;11.50;99.90;;;;;;5016747;28;20669;-72
2022/11/04 09:26:22;;;;;;;23.57;13.50;;;11.60;99.90;;;;;;5021275;28;20301;-71
2022/11/04 09:28:56;;;;;;;18.67;13.03;;;11.70;99.90;;;;;;5018837;28;20300;-72
2022/11/04 09:31:25;;;;;;;30.57;15.93;;;11.90;99.90;;;;;;5014080;28;20202;-72
2022/11/04 09:33:54;;;;;;;25.57;15.43;;;12.00;99.90;;;;;;5001851;28;20218;-73
2022/11/04 09:36:20;;;;;;;27.43;16.37;;;12.10;99.90;;;;;;5008192;28;20760;-71
2022/11/04 09:38:47;;;;;;;25.33;16.60;;;12.10;99.90;;;;;;5020435;28;20209;-72
2022/11/04 09:41:41;;;;;;;28.13;18.60;;;12.10;99.90;;;;;;5019407;28;20212;-72
2022/11/04 09:44:19;;;;;;;29.53;18.10;;;12.10;99.90;;;;;;5014730;28;20221;-73
2022/11/04 09:46:48;;;;;;;30.00;17.33;;;12.20;99.90;;;;;;5017151;28;20256;-72
2022/11/04 09:49:17;;;;;;;30.07;18.60;;;12.30;99.90;;;;;;5018288;28;20216;-73
2022/11/04 09:51:47;;;;;;;27.13;17.10;;;12.30;99.90;;;;;;5014835;28;20506;-72
2022/11/04 09:54:31;;;;;;;32.83;18.53;;;12.30;99.90;;;;;;5018768;28;20209;-73
2022/11/04 09:57:00;;;;;;;33.10;19.17;;;12.30;99.90;;;;;;5000461;28;20719;-73
2022/11/04 09:59:31;;;;;;;28.60;19.07;;;12.40;99.90;;;;;;5017902;28;20213;-72
2022/11/04 10:02:26;;;;;;;30.50;19.43;;;12.40;99.90;;;;;;5019114;28;20309;-71
2022/11/04 10:05:11;;;;;;;32.00;20.97;;;12.50;99.90;;;;;;5014407;28;20205;-72
2022/11/04 10:07:55;;;;;;;35.30;19.20;;;12.50;99.90;;;;;;5013040;28;20313;-71
2022/11/04 10:10:35;;;;;;;32.43;19.97;;;12.60;99.90;;;;;;5016446;28;20249;-73
2022/11/04 10:13:20;;;;;;;45.37;26.70;;;12.70;99.90;;;;;;5016978;28;20209;-71
2022/11/04 10:16:18;;;;;;;35.17;18.83;;;12.80;99.90;;;;;;4997010;28;20292;-72
2022/11/04 10:18:51;;;;;;;31.37;20.60;;;12.80;99.90;;;;;;5015152;28;20682;-73
2022/11/04 10:21:42;;;;;;;29.90;19.80;;;12.90;99.90;;;;;;5018787;28;20226;-73
2022/11/04 10:24:41;;;;;;;33.27;20.40;;;12.90;99.90;;;;;;5011537;28;20194;-72
2022/11/04 10:27:23;;;;;;;29.83;18.17;;;12.90;99.90;;;;;;5018581;28;20232;-72
2022/11/04 10:29:57;;;;;;;28.90;18.47;;;12.90;99.90;;;;;;4998031;28;20293;-72
2022/11/04 10:32:34;;;;;;;25.43;17.00;;;12.80;99.90;;;;;;5004134;28;20293;-73
2022/11/04 10:35:17;;;;;;;27.87;19.07;;;12.90;99.90;;;;;;5016791;28;20243;-72
2022/11/04 10:37:46;;;;;;;29.13;18.47;;;12.90;99.90;;;;;;5015371;28;20285;-73
2022/11/04 10:40:23;;;;;;;30.90;19.60;;;13.00;99.90;;;;;;5019936;28;20214;-72
2022/11/04 10:42:51;;;;;;;31.80;18.57;;;13.10;99.90;;;;;;5014766;28;20326;-73
2022/11/04 10:45:22;;;;;;;30.17;18.43;;;13.00;99.90;;;;;;5014370;28;20230;-72
2022/11/04 10:48:19;;;;;;;26.03;17.80;;;13.10;99.90;;;;;;5017079;28;20304;-71
2022/11/04 10:50:50;;;;;;;29.53;18.27;;;13.20;99.90;;;;;;5014808;28;20222;-72
2022/11/04 10:53:27;;;;;;;31.30;17.57;;;13.20;99.90;;;;;;5018475;28;20590;-72
2022/11/04 10:55:54;;;;;;;28.70;17.13;;;13.30;99.90;;;;;;5012817;28;20209;-72
2022/11/04 10:58:24;;;;;;;26.90;17.23;;;13.30;99.90;;;;;;5018824;28;20212;-73
2022/11/04 11:00:51;;;;;;;26.37;17.37;;;13.40;99.90;;;;;;5017857;28;20255;-71
2022/11/04 11:03:33;;;;;;;27.17;16.60;;;13.40;99.90;;;;;;5003305;28;20304;-72
2022/11/04 11:06:09;;;;;;;27.60;17.83;;;13.50;99.90;;;;;;5015485;28;20230;-73
2022/11/04 11:08:37;;;;;;;28.20;17.47;;;13.50;99.90;;;;;;5015479;28;20251;-73
2022/11/04 11:11:07;;;;;;;24.67;16.30;;;13.40;99.90;;;;;;5018614;28;20212;-73
2022/11/04 11:13:36;;;;;;;26.27;16.83;;;13.40;99.90;;;;;;5006015;28;20676;-72
2022/11/04 11:16:08;;;;;;;24.53;16.50;;;13.30;99.90;;;;;;5016121;28;20748;-71
2022/11/04 11:18:37;;;;;;;27.27;16.90;;;13.30;99.90;;;;;;5008341;28;20282;-71
2022/11/04 11:21:13;;;;;;;24.27;16.87;;;13.20;99.90;;;;;;5009619;28;20309;-70
2022/11/04 11:23:49;;;;;;;27.10;16.93;;;13.10;99.90;;;;;;5015280;28;20217;-73
2022/11/04 11:26:28;;;;;;;23.83;16.17;;;13.00;99.90;;;;;;4999903;28;20195;-73
2022/11/04 11:29:00;;;;;;;28.33;16.63;;;13.00;99.90;;;;;;5005624;28;20685;-73
2022/11/04 11:31:38;;;;;;;27.00;16.57;;;13.00;99.90;;;;;;5011253;28;20285;-73
2022/11/04 11:34:33;;;;;;;28.40;17.10;;;13.10;99.90;;;;;;5002415;28;20244;-72
2022/11/04 11:37:04;;;;;;;31.63;18.27;;;13.10;99.90;;;;;;5005048;28;20236;-73
2022/11/04 11:39:34;;;;;;;26.87;17.23;;;13.10;99.90;;;;;;5014315;28;20215;-72
2022/11/04 11:42:05;;;;;;;26.47;16.73;;;13.20;99.90;;;;;;5007792;28;20277;-73
2022/11/04 11:44:37;;;;;;;27.80;17.00;;;13.30;99.90;;;;;;5011060;28;20210;-72
2022/11/04 11:47:06;;;;;;;26.70;15.77;;;13.30;99.90;;;;;;5013360;28;20209;-73
2022/11/04 11:49:35;;;;;;;22.80;15.77;;;13.40;99.90;;;;;;5009816;28;20229;-73
2022/11/04 11:52:31;;;;;;;26.17;15.20;;;13.60;99.90;;;;;;4999396;28;20580;-72
2022/11/04 11:55:22;;;;;;;25.17;16.03;;;13.60;99.90;;;;;;5015916;28;20228;-71
2022/11/04 11:58:15;;;;;;;22.40;15.70;;;13.70;99.90;;;;;;5013465;28;20281;-73
2022/11/04 12:01:13;;;;;;;26.43;17.73;;;13.70;99.90;;;;;;5018076;28;20243;-75
2022/11/04 12:03:51;;;;;;;25.37;16.33;;;13.70;99.90;;;;;;5015486;28;20210;-73
2022/11/04 12:06:59;;;;;;;22.60;16.33;;;13.70;99.90;;;;;;5017942;28;20861;-73
2022/11/04 12:09:58;;;;;;;20.13;14.03;;;13.70;99.90;;;;;;5016270;28;20203;-73
2022/11/04 12:12:43;;;;;;;25.00;14.70;;;13.60;99.90;;;;;;5012604;28;20594;-72
2022/11/04 12:15:28;;;;;;;23.80;16.00;;;13.50;99.90;;;;;;5001282;28;20714;-73
2022/11/04 12:18:33;;;;;;;23.97;16.43;;;13.40;99.90;;;;;;5010190;28;20225;-73
2022/11/04 12:21:15;;;;;;;28.50;16.17;;;13.30;99.90;;;;;;5015509;28;20312;-72
2022/11/04 12:24:12;;;;;;;24.80;16.13;;;13.20;99.90;;;;;;5015077;28;20214;-73
2022/11/04 12:26:53;;;;;;;28.23;17.30;;;13.20;99.90;;;;;;5010329;28;20313;-71
2022/11/04 12:29:43;;;;;;;27.73;17.10;;;13.10;99.90;;;;;;5013035;28;20222;-71
2022/11/04 12:32:24;;;;;;;26.83;17.30;;;13.10;99.90;;;;;;5017311;28;20237;-73
2022/11/04 12:34:51;;;;;;;29.70;16.83;;;13.10;99.90;;;;;;5016877;28;20323;-71
2022/11/04 12:37:40;;;;;;;25.53;16.67;;;13.10;99.90;;;;;;5017803;28;20225;-72
2022/11/04 12:40:13;;;;;;;23.87;15.30;;;13.10;99.90;;;;;;5018633;28;20286;-74
2022/11/04 12:42:50;;;;;;;25.50;15.73;;;13.10;99.90;;;;;;5018156;28;20278;-74
2022/11/04 12:45:47;;;;;;;26.33;14.83;;;13.10;99.90;;;;;;5010745;28;20606;-73
2022/11/04 12:48:41;;;;;;;21.67;15.17;;;13.20;99.90;;;;;;5017180;28;20225;-73
2022/11/04 12:51:27;;;;;;;27.00;15.53;;;13.20;99.90;;;;;;5019737;28;20214;-73
2022/11/04 12:54:12;;;;;;;21.70;14.57;;;13.20;99.90;;;;;;5015756;28;20229;-73
2022/11/04 12:56:40;;;;;;;22.13;14.63;;;13.30;99.90;;;;;;5012006;28;20289;-73
2022/11/04 12:59:34;;;;;;;26.00;15.17;;;13.10;99.90;;;;;;5015138;28;20203;-72
2022/11/04 13:02:23;;;;;;;18.27;14.23;;;13.30;99.90;;;;;;5008383;28;20213;-73
2022/11/04 13:05:05;;;;;;;24.87;14.50;;;13.30;99.90;;;;;;5019606;28;20698;-73
2022/11/04 13:07:52;;;;;;;24.20;15.00;;;13.30;99.90;;;;;;5015958;28;20269;-73
2022/11/04 13:10:25;;;;;;;23.67;14.60;;;13.30;99.90;;;;;;5013976;28;20210;-74
2022/11/04 13:12:54;;;;;;;25.63;13.80;;;13.30;99.90;;;;;;4999563;28;20269;-74
2022/11/04 13:15:27;;;;;;;26.17;13.67;;;13.30;99.90;;;;;;5014633;28;20263;-75
2022/11/04 13:18:03;;;;;;;20.80;13.53;;;13.40;99.90;;;;;;5016376;28;20205;-74
2022/11/04 13:20:53;;;;;;;21.10;12.87;;;13.40;99.90;;;;;;4998949;28;20293;-74
2022/11/04 13:23:50;;;;;;;21.07;13.27;;;13.40;99.90;;;;;;5012362;28;20210;-73
2022/11/04 13:26:17;;;;;;;21.93;13.00;;;13.40;99.90;;;;;;5005041;28;20198;-74
2022/11/04 13:28:55;;;;;;;18.87;12.50;;;13.40;99.90;;;;;;5017816;28;20669;-73
2022/11/04 13:31:44;;;;;;;20.67;11.70;;;13.50;99.90;;;;;;5016629;28;20248;-73
2022/11/04 13:34:25;;;;;;;16.30;11.27;;;13.50;99.90;;;;;;5017179;28;20265;-73
2022/11/04 13:37:31;;;;;;;13.33;10.43;;;13.50;99.90;;;;;;4999421;28;20230;-74
2022/11/04 13:39:58;;;;;;;14.67;10.03;;;13.60;99.90;;;;;;4989708;28;20206;-74